Time,TemperatureF,DewpointF,PressureIn,WindDirection,WindDirectionDegrees,WindSpeedMPH,WindSpeedGustMPH,Humidity,HourlyPrecipIn,Conditions,Clouds,dailyrainin,SolarRadiationWatts/m^2,SoftwareType,DateUTC
2013-02-22 00:01:00,10.0,7.0,-100.00,East,97,4.0,10.0,87,0.00,,,0.03,0.000000,,2013-02-22 06:01:00,
2013-02-22 00:12:00,10.0,7.0,-100.00,East,97,4.0,10.0,87,0.00,,,0.03,0.000000,,2013-02-22 06:12:00,
2013-02-22 00:32:00,10.0,7.0,-100.00,ENE,67,4.0,8.0,86,0.00,,,0.03,0.000000,,2013-02-22 06:32:00,
2013-02-22 00:42:00,10.0,7.0,-100.00,ENE,67,4.0,8.0,86,0.00,,,0.03,0.000000,,2013-02-22 06:42:00,
2013-02-22 00:52:00,10.0,7.0,-100.00,ENE,67,4.0,8.0,86,0.00,,,0.03,0.000000,,2013-02-22 06:52:00,
2013-02-22 01:01:00,10.0,7.0,-100.00,ENE,67,4.0,8.0,86,0.00,,,0.03,0.000000,,2013-02-22 07:01:00,
2013-02-22 01:11:00,10.0,7.0,-100.00,ENE,67,4.0,8.0,86,0.00,,,0.03,0.000000,,2013-02-22 07:11:00,
2013-02-22 01:42:00,11.0,7.0,-100.00,NNE,32,4.0,7.0,83,0.00,,,0.03,0.000000,,2013-02-22 07:42:00,
2013-02-22 01:52:00,11.0,7.0,-100.00,NNE,32,4.0,7.0,83,0.00,,,0.03,0.000000,,2013-02-22 07:52:00,
2013-02-22 02:01:00,11.0,7.0,-100.00,NNE,32,4.0,7.0,83,0.00,,,0.03,0.000000,,2013-02-22 08:01:00,
2013-02-22 02:11:00,11.0,7.0,-100.00,NNE,32,4.0,7.0,83,0.00,,,0.03,0.000000,,2013-02-22 08:11:00,
2013-02-22 02:32:00,11.0,6.0,-100.00,NNE,27,4.0,9.0,81,0.00,,,0.03,0.000000,,2013-02-22 08:32:00,
2013-02-22 02:42:00,11.0,6.0,-100.00,NNE,27,4.0,9.0,81,0.00,,,0.03,0.000000,,2013-02-22 08:42:00,
2013-02-22 02:52:00,11.0,6.0,-100.00,NNE,27,4.0,9.0,81,0.00,,,0.03,0.000000,,2013-02-22 08:52:00,
2013-02-22 03:03:00,11.0,6.0,-100.00,NNE,27,4.0,9.0,81,0.00,,,0.03,0.000000,,2013-02-22 09:03:00,
2013-02-22 03:11:00,11.0,6.0,-100.00,NNE,27,4.0,9.0,81,0.00,,,0.03,0.000000,,2013-02-22 09:11:00,
2013-02-22 03:32:00,12.0,9.0,-100.00,NE,39,3.0,8.0,86,0.00,,,0.03,0.000000,,2013-02-22 09:32:00,
2013-02-22 03:42:00,12.0,9.0,-100.00,NE,39,3.0,8.0,86,0.00,,,0.03,0.000000,,2013-02-22 09:42:00,
2013-02-22 03:52:00,12.0,9.0,-100.00,NE,39,3.0,8.0,86,0.00,,,0.03,0.000000,,2013-02-22 09:52:00,
2013-02-22 04:01:00,12.0,9.0,-100.00,NE,39,3.0,8.0,86,0.00,,,0.03,0.000000,,2013-02-22 10:01:00,
2013-02-22 04:11:00,12.0,9.0,-100.00,NE,39,3.0,8.0,86,0.00,,,0.03,0.000000,,2013-02-22 10:11:00,
2013-02-22 04:42:00,12.0,11.0,-100.00,NNE,26,5.0,9.0,94,0.00,,,0.03,0.000000,,2013-02-22 10:42:00,
2013-02-22 04:52:00,12.0,11.0,-100.00,NNE,26,5.0,9.0,94,0.00,,,0.03,0.000000,,2013-02-22 10:52:00,
2013-02-22 05:01:00,12.0,11.0,-100.00,NNE,26,5.0,9.0,94,0.00,,,0.03,0.000000,,2013-02-22 11:01:00,
2013-02-22 05:11:00,12.0,11.0,-100.00,NNE,26,5.0,9.0,94,0.00,,,0.03,0.000000,,2013-02-22 11:11:00,
2013-02-22 05:32:00,12.0,11.0,-100.00,NNE,30,4.0,10.0,95,0.00,,,0.03,0.000000,,2013-02-22 11:32:00,
2013-02-22 05:42:00,12.0,11.0,-100.00,NNE,30,4.0,10.0,95,0.00,,,0.03,0.000000,,2013-02-22 11:42:00,
2013-02-22 05:52:00,12.0,11.0,-100.00,NNE,30,4.0,10.0,95,0.00,,,0.03,0.000000,,2013-02-22 11:52:00,
2013-02-22 06:02:00,12.0,11.0,-100.00,NNE,30,4.0,10.0,95,0.00,,,0.03,0.000000,,2013-02-22 12:02:00,
2013-02-22 06:11:00,12.0,11.0,-100.00,NNE,30,4.0,10.0,95,0.00,,,0.03,0.000000,,2013-02-22 12:11:00,
2013-02-22 06:32:00,14.0,13.0,-100.00,NE,41,4.0,11.0,95,0.00,,,0.03,0.000000,,2013-02-22 12:32:00,
2013-02-22 06:42:00,14.0,13.0,-100.00,NE,41,4.0,11.0,95,0.00,,,0.03,0.000000,,2013-02-22 12:42:00,
2013-02-22 06:52:00,14.0,13.0,-100.00,NE,41,4.0,11.0,95,0.00,,,0.03,0.000000,,2013-02-22 12:52:00,
2013-02-22 07:02:00,14.0,13.0,-100.00,NE,41,4.0,11.0,95,0.00,,,0.03,0.000000,,2013-02-22 13:02:00,
2013-02-22 07:11:00,14.0,13.0,-100.00,NE,41,4.0,11.0,95,0.00,,,0.03,0.000000,,2013-02-22 13:11:00,
2013-02-22 07:42:00,15.0,14.0,-100.00,NNE,20,4.0,10.0,94,0.00,,,-99.99,1.000000,,2013-02-22 13:42:00,
2013-02-22 07:52:00,15.0,14.0,-100.00,NNE,20,4.0,10.0,94,0.00,,,-99.99,1.000000,,2013-02-22 13:52:00,
2013-02-22 08:01:00,15.0,14.0,-100.00,NNE,20,4.0,10.0,94,0.00,,,-99.99,1.000000,,2013-02-22 14:01:00,
2013-02-22 08:11:00,15.0,14.0,-100.00,NNE,20,4.0,10.0,94,0.00,,,-99.99,1.000000,,2013-02-22 14:11:00,
2013-02-22 08:32:00,17.0,16.0,-100.00,NE,53,4.0,9.0,95,0.00,,,0.03,13.000000,,2013-02-22 14:32:00,
2013-02-22 08:42:00,17.0,16.0,-100.00,NE,53,4.0,9.0,95,0.00,,,0.03,13.000000,,2013-02-22 14:42:00,
2013-02-22 08:53:00,17.0,16.0,-100.00,NE,53,4.0,9.0,95,0.00,,,0.03,13.000000,,2013-02-22 14:53:00,
2013-02-22 09:01:00,17.0,16.0,-100.00,NE,53,4.0,9.0,95,0.00,,,0.03,13.000000,,2013-02-22 15:01:00,
2013-02-22 09:11:00,17.0,16.0,-100.00,NE,53,4.0,9.0,95,0.00,,,0.03,13.000000,,2013-02-22 15:11:00,
2013-02-22 09:32:00,19.0,18.0,-100.00,ENE,72,6.0,11.0,95,0.00,,,0.03,40.000000,,2013-02-22 15:32:00,
2013-02-22 09:42:00,19.0,18.0,-100.00,ENE,72,6.0,11.0,95,0.00,,,0.03,40.000000,,2013-02-22 15:42:00,
2013-02-22 09:52:00,19.0,18.0,-100.00,ENE,72,6.0,11.0,95,0.00,,,0.03,40.000000,,2013-02-22 15:52:00,
2013-02-22 10:01:00,19.0,18.0,-100.00,ENE,72,6.0,11.0,95,0.00,,,0.03,40.000000,,2013-02-22 16:01:00,
2013-02-22 10:12:00,19.0,18.0,-100.00,ENE,72,6.0,11.0,95,0.00,,,0.03,40.000000,,2013-02-22 16:12:00,
2013-02-22 10:32:00,20.0,19.0,-100.00,ENE,68,5.0,11.0,95,0.00,,,0.03,67.000000,,2013-02-22 16:32:00,
2013-02-22 10:42:00,20.0,19.0,-100.00,ENE,68,5.0,11.0,95,0.00,,,0.03,67.000000,,2013-02-22 16:42:00,
2013-02-22 10:52:00,20.0,19.0,-100.00,ENE,68,5.0,11.0,95,0.00,,,0.03,67.000000,,2013-02-22 16:52:00,
2013-02-22 11:01:00,20.0,19.0,-100.00,ENE,68,5.0,11.0,95,0.00,,,0.03,67.000000,,2013-02-22 17:01:00,
2013-02-22 11:11:00,20.0,19.0,-100.00,ENE,68,5.0,11.0,95,0.00,,,0.03,67.000000,,2013-02-22 17:11:00,
2013-02-22 11:42:00,21.0,20.0,-100.00,NNE,31,2.0,9.0,94,0.00,,,0.03,75.000000,,2013-02-22 17:42:00,
2013-02-22 11:52:00,21.0,20.0,-100.00,NNE,31,2.0,9.0,94,0.00,,,0.03,75.000000,,2013-02-22 17:52:00,
2013-02-22 12:01:00,21.0,20.0,-100.00,NNE,31,2.0,9.0,94,0.00,,,0.03,75.000000,,2013-02-22 18:01:00,
2013-02-22 12:12:00,21.0,20.0,-100.00,NNE,31,2.0,9.0,94,0.00,,,0.03,75.000000,,2013-02-22 18:12:00,
2013-02-22 12:32:00,24.0,22.0,-100.00,NE,35,3.0,7.0,92,0.00,,,-99.99,129.000000,,2013-02-22 18:32:00,
2013-02-22 12:42:00,24.0,22.0,-100.00,NE,35,3.0,7.0,92,0.00,,,-99.99,129.000000,,2013-02-22 18:42:00,
2013-02-22 12:52:00,24.0,22.0,-100.00,NE,35,3.0,7.0,92,0.00,,,-99.99,129.000000,,2013-02-22 18:52:00,
2013-02-22 13:01:00,24.0,22.0,-100.00,NE,35,3.0,7.0,92,0.00,,,-99.99,129.000000,,2013-02-22 19:01:00,
2013-02-22 13:11:00,24.0,22.0,-100.00,NE,35,3.0,7.0,92,0.00,,,-99.99,129.000000,,2013-02-22 19:11:00,
2013-02-22 13:31:00,26.0,24.0,-100.00,East,86,6.0,13.0,92,0.00,,,0.03,122.000000,,2013-02-22 19:31:00,
2013-02-22 13:42:00,26.0,24.0,-100.00,East,86,6.0,13.0,92,0.00,,,0.03,122.000000,,2013-02-22 19:42:00,
2013-02-22 13:52:00,26.0,24.0,-100.00,East,86,6.0,13.0,92,0.00,,,0.03,122.000000,,2013-02-22 19:52:00,
2013-02-22 14:01:00,26.0,24.0,-100.00,East,86,6.0,13.0,92,0.00,,,0.03,122.000000,,2013-02-22 20:01:00,
2013-02-22 14:11:00,26.0,24.0,-100.00,East,86,6.0,13.0,92,0.00,,,0.03,122.000000,,2013-02-22 20:11:00,
2013-02-22 14:42:00,25.0,23.0,-100.00,ENE,63,4.0,12.0,92,0.00,,,0.01,94.000000,,2013-02-22 20:42:00,
2013-02-22 14:52:00,25.0,23.0,-100.00,ENE,63,4.0,12.0,92,0.00,,,0.01,94.000000,,2013-02-22 20:52:00,
2013-02-22 15:01:00,25.0,23.0,-100.00,ENE,63,4.0,12.0,92,0.00,,,0.01,94.000000,,2013-02-22 21:01:00,
2013-02-22 15:11:00,25.0,23.0,-100.00,ENE,63,4.0,12.0,92,0.00,,,0.01,94.000000,,2013-02-22 21:11:00,
2013-02-22 15:42:00,26.0,23.0,-100.00,East,97,5.0,14.0,90,0.00,,,0.01,61.000000,,2013-02-22 21:42:00,
2013-02-22 15:52:00,26.0,23.0,-100.00,East,97,5.0,14.0,90,0.00,,,0.01,61.000000,,2013-02-22 21:52:00,
2013-02-22 16:01:00,26.0,23.0,-100.00,East,97,5.0,14.0,90,0.00,,,0.01,61.000000,,2013-02-22 22:01:00,
2013-02-22 16:11:00,26.0,23.0,-100.00,East,97,5.0,14.0,90,0.00,,,0.01,61.000000,,2013-02-22 22:11:00,
2013-02-22 16:42:00,24.0,22.0,-100.00,NE,48,4.0,11.0,90,0.00,,,0.00,42.000000,,2013-02-22 22:42:00,
2013-02-22 16:52:00,24.0,22.0,-100.00,NE,48,4.0,11.0,90,0.00,,,0.00,42.000000,,2013-02-22 22:52:00,
2013-02-22 17:01:00,24.0,22.0,-100.00,NE,48,4.0,11.0,90,0.00,,,0.00,42.000000,,2013-02-22 23:01:00,
2013-02-22 17:11:00,24.0,22.0,-100.00,NE,48,4.0,11.0,90,0.00,,,0.00,42.000000,,2013-02-22 23:11:00,
2013-02-22 17:42:00,22.0,20.0,-100.00,ENE,78,5.0,12.0,90,0.00,,,0.00,29.000000,,2013-02-22 23:42:00,
2013-02-22 17:52:00,22.0,20.0,-100.00,ENE,78,5.0,12.0,90,0.00,,,0.00,29.000000,,2013-02-22 23:52:00,
2013-02-22 18:01:00,22.0,20.0,-100.00,ENE,78,5.0,12.0,90,0.00,,,0.00,29.000000,,2013-02-23 00:01:00,
2013-02-22 18:11:00,22.0,20.0,-100.00,ENE,78,5.0,12.0,90,0.00,,,0.00,29.000000,,2013-02-23 00:11:00,
2013-02-22 18:32:00,21.0,19.0,-100.00,ENE,72,4.0,9.0,92,0.00,,,0.00,6.000000,,2013-02-23 00:32:00,
2013-02-22 18:42:00,21.0,19.0,-100.00,ENE,72,4.0,9.0,92,0.00,,,0.00,6.000000,,2013-02-23 00:42:00,
2013-02-22 18:52:00,21.0,19.0,-100.00,ENE,72,4.0,9.0,92,0.00,,,0.00,6.000000,,2013-02-23 00:52:00,
2013-02-22 19:01:00,21.0,19.0,-100.00,ENE,72,4.0,9.0,92,0.00,,,0.00,6.000000,,2013-02-23 01:01:00,
2013-02-22 19:11:00,21.0,19.0,-100.00,ENE,72,4.0,9.0,92,0.00,,,0.00,6.000000,,2013-02-23 01:11:00,
2013-02-22 19:32:00,21.0,20.0,-100.00,ENE,70,2.0,9.0,94,0.00,,,0.00,0.000000,,2013-02-23 01:32:00,
2013-02-22 19:42:00,21.0,20.0,-100.00,ENE,70,2.0,9.0,94,0.00,,,0.00,0.000000,,2013-02-23 01:42:00,
2013-02-22 19:52:00,21.0,20.0,-100.00,ENE,70,2.0,9.0,94,0.00,,,0.00,0.000000,,2013-02-23 01:52:00,
2013-02-22 20:01:00,21.0,20.0,-100.00,ENE,70,2.0,9.0,94,0.00,,,0.00,0.000000,,2013-02-23 02:01:00,
2013-02-22 20:11:00,21.0,20.0,-100.00,ENE,70,2.0,9.0,94,0.00,,,0.00,0.000000,,2013-02-23 02:11:00,
2013-02-22 20:32:00,21.0,20.0,-100.00,ENE,76,4.0,9.0,94,0.00,,,0.00,0.000000,,2013-02-23 02:32:00,
2013-02-22 20:42:00,21.0,20.0,-100.00,ENE,76,4.0,9.0,94,0.00,,,0.00,0.000000,,2013-02-23 02:42:00,
2013-02-22 20:52:00,21.0,20.0,-100.00,ENE,76,4.0,9.0,94,0.00,,,0.00,0.000000,,2013-02-23 02:52:00,
2013-02-22 21:01:00,21.0,20.0,-100.00,ENE,76,4.0,9.0,94,0.00,,,0.00,0.000000,,2013-02-23 03:01:00,
2013-02-22 21:11:00,21.0,20.0,-100.00,ENE,76,4.0,9.0,94,0.00,,,0.00,0.000000,,2013-02-23 03:11:00,
2013-02-22 21:32:00,20.0,18.0,-100.00,NE,52,2.0,10.0,93,0.00,,,0.00,0.000000,,2013-02-23 03:32:00,
2013-02-22 21:42:00,20.0,18.0,-100.00,NE,52,2.0,10.0,93,0.00,,,0.00,0.000000,,2013-02-23 03:42:00,
2013-02-22 21:52:00,20.0,18.0,-100.00,NE,52,2.0,10.0,93,0.00,,,0.00,0.000000,,2013-02-23 03:52:00,
2013-02-22 22:01:00,20.0,18.0,-100.00,NE,52,2.0,10.0,93,0.00,,,0.00,0.000000,,2013-02-23 04:01:00,
2013-02-22 22:11:00,20.0,18.0,-100.00,NE,52,2.0,10.0,93,0.00,,,0.00,0.000000,,2013-02-23 04:11:00,
2013-02-22 22:32:00,19.0,18.0,-100.00,NNE,19,2.0,4.0,96,0.00,,,0.00,0.000000,,2013-02-23 04:32:00,
2013-02-22 22:42:00,19.0,18.0,-100.00,NNE,19,2.0,4.0,96,0.00,,,0.00,0.000000,,2013-02-23 04:42:00,
2013-02-22 22:52:00,19.0,18.0,-100.00,NNE,19,2.0,4.0,96,0.00,,,0.00,0.000000,,2013-02-23 04:52:00,
2013-02-22 23:03:00,19.0,18.0,-100.00,NNE,19,2.0,4.0,96,0.00,,,0.00,0.000000,,2013-02-23 05:03:00,
2013-02-22 23:12:00,19.0,18.0,-100.00,NNE,19,2.0,4.0,96,0.00,,,0.00,0.000000,,2013-02-23 05:12:00,
2013-02-22 23:42:00,18.0,17.0,-100.00,NNW,334,3.0,4.0,96,0.00,,,-99.99,0.000000,,2013-02-23 05:42:00,
2013-02-22 23:52:00,18.0,17.0,-100.00,NNW,334,3.0,4.0,96,0.00,,,-99.99,0.000000,,2013-02-23 05:52:00,